Milesville, SD (57553)

10:10 AM MDT on September 20, 2014 (GMT -0600)
Philip | Change Station
CLOSE
Current Station
Airport
Location: Philip,
Elevation: 2208 ft
Nearby Weather Stations

Elev 2208 ft 44.05 °N, 101.60 °W | Updated 15 minutes ago

Clear
Clear
75 °F
Feels Like 75 °F
N
18
Wind Variable Wind from WNW
Gusts 28 mph

Today
High -- | Low -- °F
--% Chance of Precip.
Yesterday
High -- | Low -- °F
Precip. -- in
6:32 AM 6:48 PM
Waning Crescent, 11% visible
Pressure 29.98 in
Visibility 10.0 miles
Clouds Clear
Dew Point 50 °F
Humidity 41%
Rainfall 0.06 in
Snow Depth 0 in
UV 4 out of 12
Pollen 6.30 out of 12
Air Quality Not available.
Flu Activity Not available.
METAR KPHP 201555Z AUTO 30016G24KT 10SM CLR 24/10 A3002 RMK AO2 SLP151 T02390100

More Conditions Fewer Conditions

Pressure 29.98 in
Visibility 10.0 miles
Clouds Clear
Dew Point 50 °F
Humidity 41%
Rainfall 0.06 in
Snow Depth 0 in
UV 4 out of 12
Pollen 6.30 out of 12
Air Quality Not available.
Flu Activity Not available.
METAR KPHP 201555Z AUTO 30016G24KT 10SM CLR 24/10 A3002 RMK AO2 SLP151 T02390100

More Conditions Fewer Conditions

10-Day Weather Forecast

Almanac

Astronomy

Sep. 20, 2014 Rise Set
Actual Time 6:32 AM MDT 6:48 PM MDT
Civil Twilight 6:03 AM MDT 7:17 PM MDT
Nautical Twilight 5:28 AM MDT 7:51 PM MDT
Astronomical Twilight 4:53 AM MDT 8:26 PM MDT
Moon 3:06 AM MDT 4:58 PM MDT
Length of Visible Light 13h 14m
Length of Day
12h 16m
Tomorrow will be 3m 2s shorter.
Waning Crescent, 11% of the Moon is Illuminated
Today
Waning Crescent
Sep 24
New
Oct 1
First Quarter
Oct 8
Full
Oct 15
Last Quarter

Today's Extremes

State Highs State Lows

Community

WunderPhotos

Upload Photos

1,754,888 photos uploaded!

Nearby

Snow Depth

Station Depth Elevation
Blind Park 0 in 6890 ft

Earthquake Activity

City Distance Mag. Time & Date
No recent earthquake activity has been reported nearby.
Minimum magnitude displayed is 2.5.

Coastal Water Temperatures

Place Temperature
No Stations Reporting

Nearby Weather Stations